createdAt,value
2023-03-24T00:02:46.658Z,101075.28
2023-03-24T00:07:46.701Z,101069.31
2023-03-24T00:12:47.987Z,101069.03
2023-03-24T00:17:47.096Z,101058.81
2023-03-24T00:22:49.737Z,101041.28
2023-03-24T00:27:51.297Z,101041.22
2023-03-24T00:32:51.253Z,101043.16
2023-03-24T00:37:52.057Z,101021.28
2023-03-24T00:42:53.084Z,101014.47
2023-03-24T00:47:54.819Z,101024.16
2023-03-24T00:52:54.303Z,101022.69
2023-03-24T00:57:55.268Z,101038.66
2023-03-24T01:02:56.105Z,101038.03
2023-03-24T01:07:57.921Z,101036.72
2023-03-24T01:13:00.572Z,101039.59
2023-03-24T01:18:02.284Z,101047.75
2023-03-24T01:23:01.429Z,101048.72
2023-03-24T01:28:01.734Z,101037.41
2023-03-24T01:33:00.789Z,101025.44
2023-03-24T01:38:00.308Z,101030.94
2023-03-24T01:43:00.376Z,101036.44
2023-03-24T01:48:01.279Z,101037.69
2023-03-24T01:53:01.359Z,101058.88
2023-03-24T01:58:03.473Z,101072.22
2023-03-24T02:03:21.061Z,101051.34
2023-03-24T02:08:32.894Z,101033.38
2023-03-24T02:13:31.798Z,101010.53
2023-03-24T02:18:45.138Z,101018.50
2023-03-24T02:23:59.728Z,101006.09
2023-03-24T02:29:10.955Z,101000.44
2023-03-24T02:34:52.505Z,100988.50
2023-03-24T02:40:10.768Z,100986.66
2023-03-24T02:45:21.446Z,100996.56
2023-03-24T02:50:29.702Z,100995.38
2023-03-24T02:55:34.359Z,100982.28
2023-03-24T03:00:39.157Z,100984.91
2023-03-24T03:05:42.878Z,100994.78
2023-03-24T03:10:47.585Z,100998.34
2023-03-24T03:15:51.366Z,101013.41
2023-03-24T03:20:53.295Z,101005.59
2023-03-24T03:26:04.276Z,101009.38
2023-03-24T03:31:07.183Z,101018.19
2023-03-24T03:36:11.009Z,101022.03
2023-03-24T03:41:11.513Z,101022.03
2023-03-24T03:46:10.634Z,101025.72
2023-03-24T03:51:14.356Z,101024.22
2023-03-24T03:56:25.777Z,101031.19
2023-03-24T04:01:46.952Z,101032.97
2023-03-24T04:07:10.832Z,101047.13
2023-03-24T04:12:52.544Z,101047.28
2023-03-24T04:18:32.865Z,101055.38
2023-03-24T04:23:46.066Z,101062.59
2023-03-24T04:28:58.212Z,101073.56
2023-03-24T04:34:03.717Z,101059.75
2023-03-24T04:39:04.890Z,101053.03
2023-03-24T04:44:13.620Z,101057.53
2023-03-24T04:49:31.241Z,101052.28
2023-03-24T04:54:30.035Z,101059.38
2023-03-24T04:59:37.174Z,101063.72
2023-03-24T05:04:38.429Z,101068.97
2023-03-24T05:09:47.971Z,101074.09
2023-03-24T05:14:48.486Z,101069.56
2023-03-24T05:19:54.073Z,101068.72
2023-03-24T05:24:54.107Z,101072.81
2023-03-24T05:29:55.040Z,101068.38
2023-03-24T05:34:57.820Z,101077.88
2023-03-24T05:40:02.605Z,101075.41
2023-03-24T05:45:31.869Z,101080.25
2023-03-24T05:50:33.356Z,101090.34
2023-03-24T05:55:32.222Z,101082.25
2023-03-24T06:00:44.714Z,101081.75
2023-03-24T06:05:50.901Z,101083.72
2023-03-24T06:10:49.858Z,101071.97
2023-03-24T06:15:50.429Z,101073.09
2023-03-24T06:21:03.931Z,101087.91
2023-03-24T06:26:10.725Z,101097.47
2023-03-24T06:31:21.490Z,101106.59
2023-03-24T06:36:23.634Z,101111.44
2023-03-24T06:41:23.037Z,101109.72
2023-03-24T06:46:28.222Z,101113.16
2023-03-24T06:51:27.886Z,101103.28
2023-03-24T06:56:27.520Z,101095.31
2023-03-24T07:01:32.276Z,101097.81
2023-03-24T07:06:49.850Z,101101.31
2023-03-24T07:11:55.707Z,101102.41
2023-03-24T07:16:56.125Z,101107.97
2023-03-24T07:22:03.789Z,101095.81
2023-03-24T07:27:19.497Z,101101.38
2023-03-24T07:32:19.882Z,101097.88
2023-03-24T07:37:18.773Z,101094.66
2023-03-24T07:42:17.761Z,101105.78
2023-03-24T07:47:38.510Z,101100.88
2023-03-24T07:52:37.877Z,101098.84
2023-03-24T07:57:38.049Z,101093.78
2023-03-24T08:02:41.712Z,101088.63
2023-03-24T08:08:09.807Z,101089.63
2023-03-24T08:13:09.093Z,101088.38
2023-03-24T08:18:09.940Z,101080.50
2023-03-24T08:23:09.245Z,101070.13
2023-03-24T08:28:08.275Z,101075.59
2023-03-24T08:33:09.298Z,101075.59
2023-03-24T08:38:09.868Z,101072.44
2023-03-24T08:43:10.833Z,101067.13
2023-03-24T08:48:11.920Z,101074.09
2023-03-24T08:53:12.437Z,101069.25
2023-03-24T08:58:15.365Z,101073.84
2023-03-24T09:03:22.628Z,101062.09
2023-03-24T09:08:21.860Z,101049.91
2023-03-24T09:13:22.342Z,101045.59
2023-03-24T09:18:23.373Z,101038.25
2023-03-24T09:23:22.748Z,101046.19
2023-03-24T09:28:21.682Z,101041.69
2023-03-24T09:33:20.547Z,101033.03
2023-03-24T09:38:20.634Z,101024.09
2023-03-24T09:43:28.609Z,101022.25
2023-03-24T09:48:35.148Z,101005.97
2023-03-24T09:53:43.932Z,101000.28
2023-03-24T09:58:43.197Z,101000.94
2023-03-24T10:03:42.973Z,100990.09
2023-03-24T10:08:45.895Z,100996.31
2023-03-24T10:13:55.462Z,100997.09
2023-03-24T10:19:00.154Z,100976.06
2023-03-24T10:24:08.108Z,100976.78
2023-03-24T10:29:23.801Z,100972.94
2023-03-24T10:34:27.491Z,100968.72
2023-03-24T10:39:37.857Z,100958.91
2023-03-24T10:44:43.729Z,100947.47
2023-03-24T10:49:54.787Z,100944.94
2023-03-24T10:54:59.662Z,100924.66
2023-03-24T11:00:00.631Z,100929.38
2023-03-24T11:05:02.475Z,100929.72
2023-03-24T11:10:07.564Z,100926.19
2023-03-24T11:15:22.055Z,100915.03
2023-03-24T11:20:26.461Z,100905.59
2023-03-24T11:25:33.760Z,100891.34
2023-03-24T11:30:36.762Z,100886.72
2023-03-24T11:35:41.650Z,100885.38
2023-03-24T11:40:59.704Z,100873.06
2023-03-24T11:46:03.687Z,100855.97
2023-03-24T11:51:04.421Z,100852.06
2023-03-24T11:56:13.204Z,100850.28
2023-03-24T12:01:17.844Z,100856.50
2023-03-24T12:06:31.595Z,100842.97
2023-03-24T12:11:49.759Z,100828.53
2023-03-24T12:16:59.054Z,100828.31
2023-03-24T12:22:07.966Z,100818.41
2023-03-24T12:27:21.166Z,100809.97
2023-03-24T12:32:37.544Z,100807.59
2023-03-24T12:37:48.596Z,100804.81
2023-03-24T12:42:49.085Z,100801.25
2023-03-24T12:48:05.917Z,100780.94
2023-03-24T12:53:28.845Z,100775.53
2023-03-24T12:58:39.567Z,100766.25
2023-03-24T13:03:43.262Z,100765.03
2023-03-24T13:08:49.421Z,100758.25
2023-03-24T13:13:50.336Z,100749.72
2023-03-24T13:18:53.394Z,100751.00
2023-03-24T13:23:57.379Z,100744.97
2023-03-24T13:34:31.271Z,100730.56
2023-03-24T13:39:32.991Z,100713.84
2023-03-24T13:44:40.368Z,100715.31
2023-03-24T13:49:40.728Z,100702.72
2023-03-24T13:54:40.833Z,100696.06
2023-03-24T14:00:02.980Z,100691.59
2023-03-24T14:05:10.124Z,100688.69
2023-03-24T14:10:39.404Z,100686.47
2023-03-24T14:15:45.842Z,100684.34
2023-03-24T14:21:02.072Z,100671.47
2023-03-24T14:26:01.165Z,100665.91
2023-03-24T14:31:13.492Z,100664.88
2023-03-24T14:36:14.823Z,100662.34
2023-03-24T14:41:16.089Z,100658.63
2023-03-24T14:46:51.733Z,100658.50
2023-03-24T14:52:01.076Z,100649.75
2023-03-24T14:57:00.909Z,100652.09
2023-03-24T15:02:17.439Z,100641.94
2023-03-24T15:07:25.956Z,100639.69
2023-03-24T15:12:25.629Z,100637.78
2023-03-24T15:17:26.444Z,100636.13
2023-03-24T15:22:26.605Z,100648.00
2023-03-24T15:27:27.573Z,100642.81
2023-03-24T15:32:31.957Z,100645.16
2023-03-24T15:37:40.609Z,100642.84
2023-03-24T15:42:43.915Z,100650.97
2023-03-24T15:47:43.067Z,100646.44
2023-03-24T15:52:43.447Z,100648.53
2023-03-24T15:57:43.020Z,100634.69
2023-03-24T16:02:47.242Z,100639.31
2023-03-24T16:07:57.260Z,100634.91
2023-03-24T16:12:56.331Z,100640.94
2023-03-24T16:17:55.545Z,100640.25
2023-03-24T16:22:57.245Z,100643.03
2023-03-24T16:27:56.490Z,100634.38
2023-03-24T16:32:56.514Z,100643.47
2023-03-24T16:37:57.125Z,100636.41
2023-03-24T16:42:56.134Z,100629.38
2023-03-24T16:47:55.141Z,100640.66
2023-03-24T16:52:54.086Z,100630.94
2023-03-24T16:57:54.605Z,100638.97
2023-03-24T17:02:54.035Z,100642.13
2023-03-24T17:07:53.021Z,100642.25
2023-03-24T17:12:55.355Z,100644.16
2023-03-24T17:17:55.043Z,100643.00
2023-03-24T17:22:57.169Z,100640.50
2023-03-24T17:27:57.814Z,100648.81
2023-03-24T17:32:57.808Z,100643.44
2023-03-24T17:37:56.950Z,100645.09
2023-03-24T17:42:57.606Z,100640.75
2023-03-24T17:47:56.534Z,100637.59
2023-03-24T17:52:55.524Z,100644.72
2023-03-24T17:57:54.379Z,100643.44
2023-03-24T18:02:54.763Z,100644.31
2023-03-24T18:07:53.679Z,100652.38
2023-03-24T18:12:53.353Z,100653.00
2023-03-24T18:17:57.535Z,100659.50
2023-03-24T18:22:56.745Z,100652.50
2023-03-24T18:27:56.357Z,100651.94
2023-03-24T18:33:01.414Z,100646.84
2023-03-24T18:38:00.406Z,100636.75
2023-03-24T18:42:59.387Z,100636.88
2023-03-24T18:47:59.739Z,100640.94
2023-03-24T18:52:58.677Z,100641.34
2023-03-24T18:57:57.579Z,100641.75
2023-03-24T19:02:56.992Z,100637.81
2023-03-24T19:07:58.642Z,100630.50
2023-03-24T19:12:57.503Z,100629.44
2023-03-24T19:17:58.241Z,100631.25
2023-03-24T19:22:59.697Z,100623.94
2023-03-24T19:27:58.629Z,100633.44
2023-03-24T19:32:58.219Z,100636.09
2023-03-24T19:37:59.609Z,100632.88
2023-03-24T19:42:58.934Z,100627.69
2023-03-24T19:47:58.101Z,100622.94
2023-03-24T19:52:58.679Z,100623.78
2023-03-24T19:57:57.680Z,100614.41
2023-03-24T20:02:56.577Z,100614.84
2023-03-24T20:07:59.649Z,100610.13
2023-03-24T20:13:00.380Z,100605.72
2023-03-24T20:17:59.558Z,100597.34
2023-03-24T20:22:59.213Z,100595.75
2023-03-24T20:28:13.256Z,100592.75
2023-03-24T20:33:16.144Z,100589.75
2023-03-24T20:38:21.149Z,100583.06
2023-03-24T20:43:23.742Z,100575.22
2023-03-24T20:48:25.245Z,100578.03
2023-03-24T20:53:29.746Z,100574.66
2023-03-24T20:58:35.880Z,100571.13
2023-03-24T21:03:36.747Z,100569.56
2023-03-24T21:08:48.884Z,100555.00
2023-03-24T21:13:55.265Z,100559.22
2023-03-24T21:19:02.122Z,100559.78
2023-03-24T21:24:04.749Z,100551.56
2023-03-24T21:29:08.333Z,100550.53
2023-03-24T21:34:12.674Z,100554.81
2023-03-24T21:39:16.685Z,100546.94
2023-03-24T21:44:22.202Z,100543.44
2023-03-24T21:49:27.264Z,100541.53
2023-03-24T21:54:27.079Z,100547.59
2023-03-24T21:59:44.612Z,100547.88
2023-03-24T22:04:46.667Z,100553.31
2023-03-24T22:09:51.486Z,100550.78
2023-03-24T22:14:59.792Z,100557.09
2023-03-24T22:20:15.530Z,100546.78
2023-03-24T22:25:18.623Z,100544.38
2023-03-24T22:30:23.938Z,100541.06
2023-03-24T22:35:25.606Z,100538.41
2023-03-24T22:40:27.762Z,100548.13
2023-03-24T22:45:30.428Z,100549.84
2023-03-24T22:50:30.712Z,100536.47
2023-03-24T22:55:30.994Z,100532.84
2023-03-24T23:00:33.942Z,100529.69
2023-03-24T23:05:33.494Z,100534.41
2023-03-24T23:10:32.374Z,100531.00
2023-03-24T23:15:32.073Z,100518.66
2023-03-24T23:20:32.330Z,100513.97
2023-03-24T23:25:31.999Z,100516.63
2023-03-24T23:30:30.869Z,100515.63
2023-03-24T23:35:29.778Z,100512.13
2023-03-24T23:40:30.153Z,100508.50
2023-03-24T23:45:29.560Z,100506.81
2023-03-24T23:50:29.403Z,100503.75
2023-03-24T23:55:29.555Z,100506.38
